LIPL/QBS METAR and TAF weather

Enter ICAO airport designator
Station Type Date Time Source
LIPL METAR 2020/04/07 05:55 UTC NOAA

LIPL 070555Z 20001KT CAVOK 07/07 Q1027 RMK SKC VIS MIN 9999 WIND THR31 24001KT WIND THR13 20001KT BLU


Station Type Date Time Source
LIPL Decoded METAR 2020/04/07 05:55 UTC NOAA

Brescia / Ghedi, Italy (LIPL) 45-25N 010-17E 97M
Apr 07, 2020 - 01:55 AM EDT / 2020.04.07 0555 UTC
Wind: from the SSW (200 degrees) at 1 MPH (1 KT):0
Visibility: greater than 7 mile(s):0
Temperature: 44 F (7 C)
Dew Point: 44 F (7 C)
Relative Humidity: 100%
Pressure (altimeter): 30.33 in. Hg (1027 hPa)
ob: LIPL 070555Z 20001KT CAVOK 07/07 Q1027 RMK SKC VIS MIN 9999 WIND THR31 24001KT WIND THR13 20001KT BLU
cycle: 6

Station Type Date Time Source
LIPL TAF 2020/02/28 09:24 UTC NOAA

TAF TAF LIPL 280800Z 2809/2821 27007KT CAVOK

Example: see airport list